sensor_id;sensor_type;location;lat;lon;timestamp;temperature;humidity
71672;DHT22;62112;45.638;11.714;2022-10-31T00:00:02;23.80;77.70
71672;DHT22;62112;45.638;11.714;2022-10-31T00:02:28;23.80;78.00
71672;DHT22;62112;45.638;11.714;2022-10-31T00:04:54;23.80;78.00
71672;DHT22;62112;45.638;11.714;2022-10-31T00:07:19;23.80;78.00
71672;DHT22;62112;45.638;11.714;2022-10-31T00:09:45;23.80;77.60
71672;DHT22;62112;45.638;11.714;2022-10-31T00:12:11;23.80;78.20
71672;DHT22;62112;45.638;11.714;2022-10-31T00:14:37;23.70;77.90
71672;DHT22;62112;45.638;11.714;2022-10-31T00:17:03;23.80;78.30
71672;DHT22;62112;45.638;11.714;2022-10-31T00:19:28;23.70;78.20
71672;DHT22;62112;45.638;11.714;2022-10-31T00:21:54;23.70;78.30
71672;DHT22;62112;45.638;11.714;2022-10-31T00:24:20;23.70;78.20
71672;DHT22;62112;45.638;11.714;2022-10-31T00:26:46;23.70;78.20
71672;DHT22;62112;45.638;11.714;2022-10-31T00:29:12;23.70;78.30
71672;DHT22;62112;45.638;11.714;2022-10-31T00:31:38;23.70;78.30
71672;DHT22;62112;45.638;11.714;2022-10-31T00:34:04;23.70;78.40
71672;DHT22;62112;45.638;11.714;2022-10-31T00:36:30;23.70;78.40
71672;DHT22;62112;45.638;11.714;2022-10-31T00:38:57;23.70;78.40
71672;DHT22;62112;45.638;11.714;2022-10-31T00:41:23;23.60;78.30
71672;DHT22;62112;45.638;11.714;2022-10-31T00:43:49;23.70;78.50
71672;DHT22;62112;45.638;11.714;2022-10-31T00:46:15;23.60;78.60
71672;DHT22;62112;45.638;11.714;2022-10-31T00:48:41;23.70;78.60
71672;DHT22;62112;45.638;11.714;2022-10-31T00:51:07;23.70;78.60
71672;DHT22;62112;45.638;11.714;2022-10-31T00:53:34;23.70;78.70
71672;DHT22;62112;45.638;11.714;2022-10-31T00:55:59;23.60;79.40
71672;DHT22;62112;45.638;11.714;2022-10-31T00:58:25;23.60;79.60
71672;DHT22;62112;45.638;11.714;2022-10-31T01:00:51;23.60;79.50
71672;DHT22;62112;45.638;11.714;2022-10-31T01:03:25;23.60;78.70
71672;DHT22;62112;45.638;11.714;2022-10-31T01:06:07;23.60;79.80
71672;DHT22;62112;45.638;11.714;2022-10-31T01:08:34;23.50;79.80
71672;DHT22;62112;45.638;11.714;2022-10-31T01:11:16;23.50;79.70
71672;DHT22;62112;45.638;11.714;2022-10-31T01:13:42;23.60;80.20
71672;DHT22;62112;45.638;11.714;2022-10-31T01:16:10;23.70;79.10
71672;DHT22;62112;45.638;11.714;2022-10-31T01:18:37;23.60;79.10
71672;DHT22;62112;45.638;11.714;2022-10-31T01:21:04;23.60;79.70
71672;DHT22;62112;45.638;11.714;2022-10-31T01:23:30;23.60;79.90
71672;DHT22;62112;45.638;11.714;2022-10-31T01:26:07;23.60;80.20
71672;DHT22;62112;45.638;11.714;2022-10-31T01:28:35;23.60;80.30
71672;DHT22;62112;45.638;11.714;2022-10-31T01:31:03;23.60;80.10
71672;DHT22;62112;45.638;11.714;2022-10-31T01:33:29;23.60;80.30
71672;DHT22;62112;45.638;11.714;2022-10-31T01:35:55;23.60;80.10
71672;DHT22;62112;45.638;11.714;2022-10-31T01:38:21;23.50;80.20
71672;DHT22;62112;45.638;11.714;2022-10-31T01:40:47;23.50;80.30
71672;DHT22;62112;45.638;11.714;2022-10-31T01:43:13;23.50;80.60
71672;DHT22;62112;45.638;11.714;2022-10-31T01:45:41;23.50;80.40
71672;DHT22;62112;45.638;11.714;2022-10-31T01:48:13;23.50;80.60
71672;DHT22;62112;45.638;11.714;2022-10-31T01:50:41;23.50;80.70
71672;DHT22;62112;45.638;11.714;2022-10-31T01:53:10;23.50;80.50
71672;DHT22;62112;45.638;11.714;2022-10-31T01:55:42;23.60;80.60
71672;DHT22;62112;45.638;11.714;2022-10-31T01:58:30;23.50;81.00
71672;DHT22;62112;45.638;11.714;2022-10-31T02:00:58;23.50;81.10
71672;DHT22;62112;45.638;11.714;2022-10-31T02:03:26;23.60;81.00
71672;DHT22;62112;45.638;11.714;2022-10-31T02:05:56;23.50;80.90
71672;DHT22;62112;45.638;11.714;2022-10-31T02:08:30;23.50;81.20
71672;DHT22;62112;45.638;11.714;2022-10-31T02:10:58;23.50;81.20
71672;DHT22;62112;45.638;11.714;2022-10-31T02:13:25;23.50;81.00
71672;DHT22;62112;45.638;11.714;2022-10-31T02:15:57;23.50;81.00
71672;DHT22;62112;45.638;11.714;2022-10-31T02:18:25;23.50;81.30
71672;DHT22;62112;45.638;11.714;2022-10-31T02:21:17;23.50;81.20
71672;DHT22;62112;45.638;11.714;2022-10-31T02:32:29;23.50;81.70
71672;DHT22;62112;45.638;11.714;2022-10-31T02:43:03;23.50;81.90
71672;DHT22;62112;45.638;11.714;2022-10-31T02:45:37;23.50;82.00
71672;DHT22;62112;45.638;11.714;2022-10-31T02:48:12;23.40;81.80
71672;DHT22;62112;45.638;11.714;2022-10-31T02:50:43;23.40;82.00
71672;DHT22;62112;45.638;11.714;2022-10-31T02:53:16;23.40;81.90
71672;DHT22;62112;45.638;11.714;2022-10-31T02:55:54;23.40;82.20
71672;DHT22;62112;45.638;11.714;2022-10-31T02:58:22;23.40;82.10
71672;DHT22;62112;45.638;11.714;2022-10-31T03:03:45;23.50;82.30
71672;DHT22;62112;45.638;11.714;2022-10-31T03:09:03;23.30;82.10
71672;DHT22;62112;45.638;11.714;2022-10-31T03:14:42;23.30;82.30
71672;DHT22;62112;45.638;11.714;2022-10-31T03:17:15;23.40;82.40
71672;DHT22;62112;45.638;11.714;2022-10-31T03:19:45;23.40;82.40
71672;DHT22;62112;45.638;11.714;2022-10-31T03:22:23;23.40;82.30
71672;DHT22;62112;45.638;11.714;2022-10-31T03:24:52;23.40;82.40
71672;DHT22;62112;45.638;11.714;2022-10-31T03:27:24;23.30;82.40
71672;DHT22;62112;45.638;11.714;2022-10-31T03:29:52;23.30;82.40
71672;DHT22;62112;45.638;11.714;2022-10-31T03:32:49;23.40;82.50
71672;DHT22;62112;45.638;11.714;2022-10-31T03:35:19;23.40;82.70
71672;DHT22;62112;45.638;11.714;2022-10-31T03:37:47;23.30;82.50
71672;DHT22;62112;45.638;11.714;2022-10-31T03:40:16;23.40;82.40
71672;DHT22;62112;45.638;11.714;2022-10-31T03:42:53;23.30;82.70
71672;DHT22;62112;45.638;11.714;2022-10-31T03:45:28;23.40;82.50
71672;DHT22;62112;45.638;11.714;2022-10-31T03:47:57;23.30;82.70
71672;DHT22;62112;45.638;11.714;2022-10-31T03:50:27;23.20;82.60
71672;DHT22;62112;45.638;11.714;2022-10-31T03:53:10;23.30;82.60
71672;DHT22;62112;45.638;11.714;2022-10-31T03:58:10;23.30;82.70
71672;DHT22;62112;45.638;11.714;2022-10-31T04:00:41;23.30;82.90
71672;DHT22;62112;45.638;11.714;2022-10-31T04:03:31;23.30;82.80
71672;DHT22;62112;45.638;11.714;2022-10-31T04:06:02;23.30;82.80
71672;DHT22;62112;45.638;11.714;2022-10-31T04:08:31;23.30;82.70
71672;DHT22;62112;45.638;11.714;2022-10-31T04:10:59;23.30;82.80
71672;DHT22;62112;45.638;11.714;2022-10-31T04:13:29;23.30;82.90
71672;DHT22;62112;45.638;11.714;2022-10-31T04:15:56;23.30;82.70
71672;DHT22;62112;45.638;11.714;2022-10-31T04:18:23;23.40;83.00
71672;DHT22;62112;45.638;11.714;2022-10-31T04:20:58;23.30;82.80
71672;DHT22;62112;45.638;11.714;2022-10-31T04:23:25;23.30;82.80
71672;DHT22;62112;45.638;11.714;2022-10-31T04:25:51;23.30;83.00
71672;DHT22;62112;45.638;11.714;2022-10-31T04:28:18;23.30;82.90
71672;DHT22;62112;45.638;11.714;2022-10-31T04:30:44;23.30;83.10
71672;DHT22;62112;45.638;11.714;2022-10-31T04:33:10;23.20;83.10
71672;DHT22;62112;45.638;11.714;2022-10-31T04:35:36;23.20;83.00
71672;DHT22;62112;45.638;11.714;2022-10-31T04:38:01;23.30;83.10
71672;DHT22;62112;45.638;11.714;2022-10-31T04:40:27;23.20;83.00
71672;DHT22;62112;45.638;11.714;2022-10-31T04:42:53;23.30;83.20
71672;DHT22;62112;45.638;11.714;2022-10-31T04:45:20;23.30;83.20
71672;DHT22;62112;45.638;11.714;2022-10-31T04:47:46;23.20;83.20
71672;DHT22;62112;45.638;11.714;2022-10-31T04:50:12;23.20;83.30
71672;DHT22;62112;45.638;11.714;2022-10-31T04:52:45;23.20;83.20
71672;DHT22;62112;45.638;11.714;2022-10-31T04:55:12;23.20;83.30
71672;DHT22;62112;45.638;11.714;2022-10-31T04:57:45;23.10;83.10
71672;DHT22;62112;45.638;11.714;2022-10-31T05:00:13;23.20;83.30
71672;DHT22;62112;45.638;11.714;2022-10-31T05:02:49;23.30;83.30
71672;DHT22;62112;45.638;11.714;2022-10-31T05:05:18;23.20;83.40
71672;DHT22;62112;45.638;11.714;2022-10-31T05:07:46;23.20;83.40
71672;DHT22;62112;45.638;11.714;2022-10-31T05:10:14;23.10;83.40
71672;DHT22;62112;45.638;11.714;2022-10-31T05:12:52;23.20;83.40
71672;DHT22;62112;45.638;11.714;2022-10-31T05:15:20;23.20;83.60
71672;DHT22;62112;45.638;11.714;2022-10-31T05:17:46;23.10;83.40
71672;DHT22;62112;45.638;11.714;2022-10-31T05:20:14;23.20;83.30
71672;DHT22;62112;45.638;11.714;2022-10-31T05:22:48;23.30;83.30
71672;DHT22;62112;45.638;11.714;2022-10-31T05:25:15;23.20;83.40
71672;DHT22;62112;45.638;11.714;2022-10-31T05:27:42;23.20;83.40
71672;DHT22;62112;45.638;11.714;2022-10-31T05:30:10;23.10;83.40
71672;DHT22;62112;45.638;11.714;2022-10-31T05:32:40;23.20;83.50
71672;DHT22;62112;45.638;11.714;2022-10-31T05:35:08;23.20;83.40
71672;DHT22;62112;45.638;11.714;2022-10-31T05:37:35;23.20;83.60
71672;DHT22;62112;45.638;11.714;2022-10-31T05:40:02;23.20;83.60
71672;DHT22;62112;45.638;11.714;2022-10-31T05:42:28;23.10;83.60
71672;DHT22;62112;45.638;11.714;2022-10-31T05:44:54;23.20;83.60
71672;DHT22;62112;45.638;11.714;2022-10-31T05:47:20;23.20;83.50
71672;DHT22;62112;45.638;11.714;2022-10-31T05:49:46;23.20;83.60
71672;DHT22;62112;45.638;11.714;2022-10-31T05:52:12;23.20;83.60
71672;DHT22;62112;45.638;11.714;2022-10-31T05:54:37;23.20;83.60
71672;DHT22;62112;45.638;11.714;2022-10-31T05:57:03;23.10;83.70
71672;DHT22;62112;45.638;11.714;2022-10-31T05:59:29;23.20;83.50
71672;DHT22;62112;45.638;11.714;2022-10-31T06:01:55;23.20;83.60
71672;DHT22;62112;45.638;11.714;2022-10-31T06:04:21;23.10;83.60
71672;DHT22;62112;45.638;11.714;2022-10-31T06:06:47;23.20;83.60
71672;DHT22;62112;45.638;11.714;2022-10-31T06:09:12;23.20;83.60
71672;DHT22;62112;45.638;11.714;2022-10-31T06:11:38;23.20;83.60
71672;DHT22;62112;45.638;11.714;2022-10-31T06:14:05;23.10;83.50
71672;DHT22;62112;45.638;11.714;2022-10-31T06:16:31;23.10;83.70
71672;DHT22;62112;45.638;11.714;2022-10-31T06:18:56;23.10;83.60
71672;DHT22;62112;45.638;11.714;2022-10-31T06:21:22;23.10;83.80
71672;DHT22;62112;45.638;11.714;2022-10-31T06:23:48;23.10;83.60
71672;DHT22;62112;45.638;11.714;2022-10-31T06:26:14;23.10;83.60
71672;DHT22;62112;45.638;11.714;2022-10-31T06:28:40;23.10;83.60
71672;DHT22;62112;45.638;11.714;2022-10-31T06:31:06;23.10;83.60
71672;DHT22;62112;45.638;11.714;2022-10-31T06:33:33;23.10;83.80
71672;DHT22;62112;45.638;11.714;2022-10-31T06:35:59;23.10;83.60
71672;DHT22;62112;45.638;11.714;2022-10-31T06:38:26;23.10;83.60
71672;DHT22;62112;45.638;11.714;2022-10-31T06:40:53;23.20;83.70
71672;DHT22;62112;45.638;11.714;2022-10-31T06:43:20;23.20;83.60
71672;DHT22;62112;45.638;11.714;2022-10-31T06:45:46;23.10;83.70
71672;DHT22;62112;45.638;11.714;2022-10-31T06:48:12;23.10;83.80
71672;DHT22;62112;45.638;11.714;2022-10-31T06:50:38;23.10;84.10
71672;DHT22;62112;45.638;11.714;2022-10-31T06:53:04;23.30;84.50
71672;DHT22;62112;45.638;11.714;2022-10-31T06:55:30;23.20;84.80
71672;DHT22;62112;45.638;11.714;2022-10-31T06:57:58;23.20;85.00
71672;DHT22;62112;45.638;11.714;2022-10-31T07:00:26;23.20;85.20
71672;DHT22;62112;45.638;11.714;2022-10-31T07:03:06;23.20;85.00
71672;DHT22;62112;45.638;11.714;2022-10-31T07:05:37;23.20;84.90
71672;DHT22;62112;45.638;11.714;2022-10-31T07:08:12;23.20;84.90
71672;DHT22;62112;45.638;11.714;2022-10-31T07:10:41;23.20;84.90
71672;DHT22;62112;45.638;11.714;2022-10-31T07:13:11;23.20;84.80
71672;DHT22;62112;45.638;11.714;2022-10-31T07:15:39;23.20;84.70
71672;DHT22;62112;45.638;11.714;2022-10-31T07:18:09;23.30;84.80
71672;DHT22;62112;45.638;11.714;2022-10-31T07:20:38;23.30;84.80
71672;DHT22;62112;45.638;11.714;2022-10-31T07:23:04;23.30;84.90
71672;DHT22;62112;45.638;11.714;2022-10-31T07:25:30;23.40;84.80
71672;DHT22;62112;45.638;11.714;2022-10-31T07:27:56;23.40;84.80
71672;DHT22;62112;45.638;11.714;2022-10-31T07:30:22;23.50;84.50
71672;DHT22;62112;45.638;11.714;2022-10-31T07:32:49;23.60;83.40
71672;DHT22;62112;45.638;11.714;2022-10-31T07:35:17;23.60;83.30
71672;DHT22;62112;45.638;11.714;2022-10-31T07:37:44;23.70;83.00
71672;DHT22;62112;45.638;11.714;2022-10-31T07:40:10;23.80;82.60
71672;DHT22;62112;45.638;11.714;2022-10-31T07:42:41;23.90;82.40
71672;DHT22;62112;45.638;11.714;2022-10-31T07:45:10;23.90;81.80
71672;DHT22;62112;45.638;11.714;2022-10-31T07:47:44;24.00;81.40
71672;DHT22;62112;45.638;11.714;2022-10-31T07:50:15;24.10;81.10
71672;DHT22;62112;45.638;11.714;2022-10-31T07:52:41;24.10;80.60
71672;DHT22;62112;45.638;11.714;2022-10-31T07:55:07;24.10;80.30
71672;DHT22;62112;45.638;11.714;2022-10-31T07:57:33;24.20;79.90
71672;DHT22;62112;45.638;11.714;2022-10-31T07:59:59;24.30;79.60
71672;DHT22;62112;45.638;11.714;2022-10-31T08:02:26;24.30;79.60
71672;DHT22;62112;45.638;11.714;2022-10-31T08:04:52;24.40;79.50
71672;DHT22;62112;45.638;11.714;2022-10-31T08:07:18;24.50;79.10
71672;DHT22;62112;45.638;11.714;2022-10-31T08:09:44;24.60;78.80
71672;DHT22;62112;45.638;11.714;2022-10-31T08:12:10;24.70;78.50
71672;DHT22;62112;45.638;11.714;2022-10-31T08:14:36;24.70;78.00
71672;DHT22;62112;45.638;11.714;2022-10-31T08:17:02;24.80;77.40
71672;DHT22;62112;45.638;11.714;2022-10-31T08:19:27;24.80;76.90
71672;DHT22;62112;45.638;11.714;2022-10-31T08:21:53;24.90;76.40
71672;DHT22;62112;45.638;11.714;2022-10-31T08:24:24;24.90;75.90
71672;DHT22;62112;45.638;11.714;2022-10-31T08:26:50;24.90;75.30
71672;DHT22;62112;45.638;11.714;2022-10-31T08:29:16;25.10;74.60
71672;DHT22;62112;45.638;11.714;2022-10-31T08:31:42;25.10;74.40
71672;DHT22;62112;45.638;11.714;2022-10-31T08:34:08;25.10;73.90
71672;DHT22;62112;45.638;11.714;2022-10-31T08:36:34;25.20;73.60
71672;DHT22;62112;45.638;11.714;2022-10-31T08:39:00;25.20;73.00
71672;DHT22;62112;45.638;11.714;2022-10-31T08:41:26;25.20;72.80
71672;DHT22;62112;45.638;11.714;2022-10-31T08:43:52;25.30;72.50
71672;DHT22;62112;45.638;11.714;2022-10-31T08:46:17;25.30;72.20
71672;DHT22;62112;45.638;11.714;2022-10-31T08:48:43;25.30;71.90
71672;DHT22;62112;45.638;11.714;2022-10-31T08:51:10;25.40;71.80
71672;DHT22;62112;45.638;11.714;2022-10-31T08:53:36;25.40;71.50
71672;DHT22;62112;45.638;11.714;2022-10-31T08:56:02;25.40;70.90
71672;DHT22;62112;45.638;11.714;2022-10-31T08:58:27;25.40;70.80
71672;DHT22;62112;45.638;11.714;2022-10-31T09:00:54;25.50;70.20
71672;DHT22;62112;45.638;11.714;2022-10-31T09:03:26;25.50;69.60
71672;DHT22;62112;45.638;11.714;2022-10-31T09:05:58;25.60;69.20
71672;DHT22;62112;45.638;11.714;2022-10-31T09:08:24;25.60;68.50
71672;DHT22;62112;45.638;11.714;2022-10-31T09:10:50;25.60;68.20
71672;DHT22;62112;45.638;11.714;2022-10-31T09:13:18;25.60;68.40
71672;DHT22;62112;45.638;11.714;2022-10-31T09:15:47;25.60;67.70
71672;DHT22;62112;45.638;11.714;2022-10-31T09:18:16;25.70;67.70
71672;DHT22;62112;45.638;11.714;2022-10-31T09:20:43;25.70;67.00
71672;DHT22;62112;45.638;11.714;2022-10-31T09:23:13;25.60;67.00
71672;DHT22;62112;45.638;11.714;2022-10-31T09:25:40;25.60;66.60
71672;DHT22;62112;45.638;11.714;2022-10-31T09:28:08;25.70;66.50
71672;DHT22;62112;45.638;11.714;2022-10-31T09:30:35;25.70;66.30
71672;DHT22;62112;45.638;11.714;2022-10-31T09:33:08;25.80;66.20
71672;DHT22;62112;45.638;11.714;2022-10-31T09:35:34;25.90;65.80
71672;DHT22;62112;45.638;11.714;2022-10-31T09:38:14;25.90;65.90
71672;DHT22;62112;45.638;11.714;2022-10-31T09:40:50;25.90;65.40
71672;DHT22;62112;45.638;11.714;2022-10-31T09:43:43;25.90;64.70
71672;DHT22;62112;45.638;11.714;2022-10-31T09:52:00;25.90;64.30
71672;DHT22;62112;45.638;11.714;2022-10-31T09:54:54;25.90;64.20
71672;DHT22;62112;45.638;11.714;2022-10-31T09:57:33;25.90;63.70
71672;DHT22;62112;45.638;11.714;2022-10-31T10:00:00;25.90;63.60
71672;DHT22;62112;45.638;11.714;2022-10-31T10:02:37;26.00;64.60
71672;DHT22;62112;45.638;11.714;2022-10-31T10:05:09;26.00;63.70
71672;DHT22;62112;45.638;11.714;2022-10-31T10:07:48;26.00;64.40
71672;DHT22;62112;45.638;11.714;2022-10-31T10:10:17;25.90;63.70
71672;DHT22;62112;45.638;11.714;2022-10-31T10:13:01;26.00;64.00
71672;DHT22;62112;45.638;11.714;2022-10-31T10:15:54;25.90;64.10
71672;DHT22;62112;45.638;11.714;2022-10-31T10:18:43;25.90;63.60
71672;DHT22;62112;45.638;11.714;2022-10-31T10:24:45;26.00;63.60
71672;DHT22;62112;45.638;11.714;2022-10-31T10:28:00;25.90;63.20
71672;DHT22;62112;45.638;11.714;2022-10-31T10:30:19;25.90;63.80
71672;DHT22;62112;45.638;11.714;2022-10-31T10:33:10;25.90;64.10
71672;DHT22;62112;45.638;11.714;2022-10-31T10:35:53;25.90;63.90
71672;DHT22;62112;45.638;11.714;2022-10-31T10:41:20;25.90;63.60
71672;DHT22;62112;45.638;11.714;2022-10-31T10:44:00;26.00;63.30
71672;DHT22;62112;45.638;11.714;2022-10-31T10:46:51;25.90;63.20
71672;DHT22;62112;45.638;11.714;2022-10-31T10:55:47;25.90;63.20
71672;DHT22;62112;45.638;11.714;2022-10-31T10:58:24;25.90;63.90
71672;DHT22;62112;45.638;11.714;2022-10-31T11:01:00;25.90;63.60
71672;DHT22;62112;45.638;11.714;2022-10-31T11:03:53;26.00;63.20
71672;DHT22;62112;45.638;11.714;2022-10-31T11:06:32;25.90;63.00
71672;DHT22;62112;45.638;11.714;2022-10-31T11:09:14;25.90;63.50
71672;DHT22;62112;45.638;11.714;2022-10-31T11:11:49;25.90;63.50
71672;DHT22;62112;45.638;11.714;2022-10-31T11:14:18;25.80;63.80
71672;DHT22;62112;45.638;11.714;2022-10-31T11:16:50;25.80;64.00
71672;DHT22;62112;45.638;11.714;2022-10-31T11:19:25;25.80;64.20
71672;DHT22;62112;45.638;11.714;2022-10-31T11:22:14;25.80;64.40
71672;DHT22;62112;45.638;11.714;2022-10-31T11:24:45;25.80;64.60
71672;DHT22;62112;45.638;11.714;2022-10-31T11:27:20;25.70;65.00
71672;DHT22;62112;45.638;11.714;2022-10-31T11:29:48;25.70;65.60
71672;DHT22;62112;45.638;11.714;2022-10-31T11:32:24;25.70;65.70
71672;DHT22;62112;45.638;11.714;2022-10-31T11:34:59;25.70;65.80
71672;DHT22;62112;45.638;11.714;2022-10-31T11:37:32;25.60;65.50
71672;DHT22;62112;45.638;11.714;2022-10-31T11:40:05;25.60;65.80
71672;DHT22;62112;45.638;11.714;2022-10-31T11:42:42;25.60;65.90
71672;DHT22;62112;45.638;11.714;2022-10-31T11:47:57;25.60;66.10
71672;DHT22;62112;45.638;11.714;2022-10-31T11:50:31;25.60;66.20
71672;DHT22;62112;45.638;11.714;2022-10-31T11:52:58;25.50;66.60
71672;DHT22;62112;45.638;11.714;2022-10-31T11:57:56;25.50;67.50
71672;DHT22;62112;45.638;11.714;2022-10-31T12:00:27;25.50;67.50
71672;DHT22;62112;45.638;11.714;2022-10-31T12:05:45;25.50;67.80
71672;DHT22;62112;45.638;11.714;2022-10-31T12:08:13;25.40;67.60
71672;DHT22;62112;45.638;11.714;2022-10-31T12:10:51;25.40;68.10
71672;DHT22;62112;45.638;11.714;2022-10-31T12:16:25;25.40;68.10
71672;DHT22;62112;45.638;11.714;2022-10-31T12:22:12;25.40;69.20
71672;DHT22;62112;45.638;11.714;2022-10-31T12:24:50;25.40;68.80
71672;DHT22;62112;45.638;11.714;2022-10-31T12:36:00;25.30;69.00
71672;DHT22;62112;45.638;11.714;2022-10-31T12:41:24;25.40;68.00
71672;DHT22;62112;45.638;11.714;2022-10-31T12:59:43;25.30;67.40
71672;DHT22;62112;45.638;11.714;2022-10-31T13:07:19;25.30;67.10
71672;DHT22;62112;45.638;11.714;2022-10-31T13:10:04;25.20;67.40
71672;DHT22;62112;45.638;11.714;2022-10-31T13:12:32;25.20;67.30
71672;DHT22;62112;45.638;11.714;2022-10-31T13:15:45;25.20;68.30
71672;DHT22;62112;45.638;11.714;2022-10-31T13:18:21;25.20;68.10
71672;DHT22;62112;45.638;11.714;2022-10-31T13:20:49;25.10;68.30
71672;DHT22;62112;45.638;11.714;2022-10-31T13:23:33;25.20;69.00
71672;DHT22;62112;45.638;11.714;2022-10-31T13:26:09;25.20;68.80
71672;DHT22;62112;45.638;11.714;2022-10-31T13:28:59;25.10;69.00
71672;DHT22;62112;45.638;11.714;2022-10-31T13:31:26;25.20;68.70
71672;DHT22;62112;45.638;11.714;2022-10-31T13:33:58;25.20;68.90
71672;DHT22;62112;45.638;11.714;2022-10-31T13:39:50;25.20;69.20
71672;DHT22;62112;45.638;11.714;2022-10-31T13:45:22;25.30;69.00
71672;DHT22;62112;45.638;11.714;2022-10-31T13:51:07;25.30;68.70
71672;DHT22;62112;45.638;11.714;2022-10-31T13:58:36;25.30;69.50
71672;DHT22;62112;45.638;11.714;2022-10-31T14:03:34;25.40;68.80
71672;DHT22;62112;45.638;11.714;2022-10-31T14:06:01;25.40;69.30
71672;DHT22;62112;45.638;11.714;2022-10-31T14:08:28;25.40;69.40
71672;DHT22;62112;45.638;11.714;2022-10-31T14:10:57;25.50;69.10
71672;DHT22;62112;45.638;11.714;2022-10-31T14:16:03;25.50;68.60
71672;DHT22;62112;45.638;11.714;2022-10-31T14:18:35;25.50;68.10
71672;DHT22;62112;45.638;11.714;2022-10-31T14:23:43;25.50;68.60
71672;DHT22;62112;45.638;11.714;2022-10-31T14:26:32;25.50;68.10
71672;DHT22;62112;45.638;11.714;2022-10-31T14:29:23;25.50;67.60
71672;DHT22;62112;45.638;11.714;2022-10-31T14:37:14;25.50;68.20
71672;DHT22;62112;45.638;11.714;2022-10-31T14:42:51;25.50;68.40
71672;DHT22;62112;45.638;11.714;2022-10-31T14:45:28;25.60;67.60
71672;DHT22;62112;45.638;11.714;2022-10-31T14:50:55;25.60;68.30
71672;DHT22;62112;45.638;11.714;2022-10-31T14:53:47;25.60;67.50
71672;DHT22;62112;45.638;11.714;2022-10-31T14:56:29;25.60;67.40
71672;DHT22;62112;45.638;11.714;2022-10-31T14:59:09;25.60;67.50
71672;DHT22;62112;45.638;11.714;2022-10-31T15:01:39;25.60;67.70
71672;DHT22;62112;45.638;11.714;2022-10-31T15:04:17;25.60;68.30
71672;DHT22;62112;45.638;11.714;2022-10-31T15:06:48;25.50;67.90
71672;DHT22;62112;45.638;11.714;2022-10-31T15:09:24;25.50;68.50
71672;DHT22;62112;45.638;11.714;2022-10-31T15:11:50;25.50;68.00
71672;DHT22;62112;45.638;11.714;2022-10-31T15:14:25;25.50;68.40
71672;DHT22;62112;45.638;11.714;2022-10-31T15:16:51;25.50;68.00
71672;DHT22;62112;45.638;11.714;2022-10-31T15:19:25;25.50;68.10
71672;DHT22;62112;45.638;11.714;2022-10-31T15:21:53;25.40;68.40
71672;DHT22;62112;45.638;11.714;2022-10-31T15:24:20;25.40;69.20
71672;DHT22;62112;45.638;11.714;2022-10-31T15:26:51;25.40;69.20
71672;DHT22;62112;45.638;11.714;2022-10-31T15:29:23;25.30;70.00
71672;DHT22;62112;45.638;11.714;2022-10-31T15:31:54;25.30;69.90
71672;DHT22;62112;45.638;11.714;2022-10-31T15:34:39;25.20;70.20
71672;DHT22;62112;45.638;11.714;2022-10-31T15:37:11;25.30;70.80
71672;DHT22;62112;45.638;11.714;2022-10-31T15:39:39;25.30;71.10
71672;DHT22;62112;45.638;11.714;2022-10-31T15:42:22;25.20;71.20
71672;DHT22;62112;45.638;11.714;2022-10-31T15:45:38;25.20;71.30
71672;DHT22;62112;45.638;11.714;2022-10-31T15:47:51;25.10;71.60
71672;DHT22;62112;45.638;11.714;2022-10-31T15:50:25;25.10;71.80
71672;DHT22;62112;45.638;11.714;2022-10-31T15:52:53;25.10;71.80
71672;DHT22;62112;45.638;11.714;2022-10-31T15:55:22;25.10;72.20
71672;DHT22;62112;45.638;11.714;2022-10-31T15:57:51;25.10;72.10
71672;DHT22;62112;45.638;11.714;2022-10-31T16:00:37;25.00;72.20
71672;DHT22;62112;45.638;11.714;2022-10-31T16:05:53;25.00;72.50
71672;DHT22;62112;45.638;11.714;2022-10-31T16:13:35;24.90;73.00
71672;DHT22;62112;45.638;11.714;2022-10-31T16:16:15;25.00;73.00
71672;DHT22;62112;45.638;11.714;2022-10-31T16:18:42;24.90;73.20
71672;DHT22;62112;45.638;11.714;2022-10-31T16:21:09;24.90;73.20
71672;DHT22;62112;45.638;11.714;2022-10-31T16:23:37;24.90;73.40
71672;DHT22;62112;45.638;11.714;2022-10-31T16:26:07;24.80;73.90
71672;DHT22;62112;45.638;11.714;2022-10-31T16:28:34;24.80;73.80
71672;DHT22;62112;45.638;11.714;2022-10-31T16:31:01;24.80;73.80
71672;DHT22;62112;45.638;11.714;2022-10-31T16:33:37;24.80;74.20
71672;DHT22;62112;45.638;11.714;2022-10-31T16:38:57;24.70;74.70
71672;DHT22;62112;45.638;11.714;2022-10-31T16:41:26;24.70;74.70
71672;DHT22;62112;45.638;11.714;2022-10-31T16:43:52;24.70;74.70
71672;DHT22;62112;45.638;11.714;2022-10-31T16:46:23;24.70;74.80
71672;DHT22;62112;45.638;11.714;2022-10-31T16:48:50;24.60;75.10
71672;DHT22;62112;45.638;11.714;2022-10-31T16:51:16;24.60;75.00
71672;DHT22;62112;45.638;11.714;2022-10-31T16:53:41;24.70;75.10
71672;DHT22;62112;45.638;11.714;2022-10-31T16:56:18;24.70;75.50
71672;DHT22;62112;45.638;11.714;2022-10-31T16:58:46;24.70;76.00
71672;DHT22;62112;45.638;11.714;2022-10-31T17:01:12;24.60;75.60
71672;DHT22;62112;45.638;11.714;2022-10-31T17:03:39;24.60;75.80
71672;DHT22;62112;45.638;11.714;2022-10-31T17:06:05;24.50;76.10
71672;DHT22;62112;45.638;11.714;2022-10-31T17:08:31;24.50;76.10
71672;DHT22;62112;45.638;11.714;2022-10-31T17:10:58;24.70;76.20
71672;DHT22;62112;45.638;11.714;2022-10-31T17:13:27;24.50;76.60
71672;DHT22;62112;45.638;11.714;2022-10-31T17:15:56;24.50;76.60
71672;DHT22;62112;45.638;11.714;2022-10-31T17:18:23;24.60;76.30
71672;DHT22;62112;45.638;11.714;2022-10-31T17:20:50;24.60;76.60
71672;DHT22;62112;45.638;11.714;2022-10-31T17:23:16;24.60;76.80
71672;DHT22;62112;45.638;11.714;2022-10-31T17:25:43;24.50;76.90
71672;DHT22;62112;45.638;11.714;2022-10-31T17:28:13;24.50;77.10
71672;DHT22;62112;45.638;11.714;2022-10-31T17:30:40;24.40;77.30
71672;DHT22;62112;45.638;11.714;2022-10-31T17:33:09;24.50;77.30
71672;DHT22;62112;45.638;11.714;2022-10-31T17:35:35;24.50;77.60
71672;DHT22;62112;45.638;11.714;2022-10-31T17:38:01;24.50;77.60
71672;DHT22;62112;45.638;11.714;2022-10-31T17:40:27;24.50;77.90
71672;DHT22;62112;45.638;11.714;2022-10-31T17:42:55;24.40;78.10
71672;DHT22;62112;45.638;11.714;2022-10-31T17:45:23;24.40;78.30
71672;DHT22;62112;45.638;11.714;2022-10-31T17:47:51;24.30;78.50
71672;DHT22;62112;45.638;11.714;2022-10-31T17:50:25;24.40;78.50
71672;DHT22;62112;45.638;11.714;2022-10-31T17:52:51;24.40;78.90